createdAt,value
2018-07-10T00:02:49.259Z,4.13
2018-07-10T00:08:36.921Z,4.45
2018-07-10T00:11:21.506Z,4.53
2018-07-10T00:13:54.251Z,4.37
2018-07-10T00:16:23.411Z,4.30
2018-07-10T00:18:52.572Z,3.72
2018-07-10T00:21:21.348Z,3.80
2018-07-10T00:23:51.278Z,3.63
2018-07-10T00:26:20.116Z,4.03
2018-07-10T00:28:49.028Z,4.67
2018-07-10T00:31:19.180Z,4.65
2018-07-10T00:33:48.300Z,4.50
2018-07-10T00:36:18.039Z,4.75
2018-07-10T00:39:07.473Z,4.05
2018-07-10T00:41:40.508Z,4.30
2018-07-10T00:44:09.473Z,4.50
2018-07-10T00:46:39.930Z,4.53
2018-07-10T00:49:08.676Z,4.00
2018-07-10T00:51:40.703Z,3.87
2018-07-10T00:54:09.786Z,4.03
2018-07-10T00:56:43.689Z,4.40
2018-07-10T00:59:12.565Z,4.80
2018-07-10T01:01:42.408Z,4.80
2018-07-10T01:04:11.124Z,4.85
2018-07-10T01:06:39.900Z,4.80
2018-07-10T01:09:14.692Z,4.78
2018-07-10T01:11:44.498Z,4.40
2018-07-10T01:14:13.283Z,4.28
2018-07-10T01:16:42.039Z,4.40
2018-07-10T01:19:13.433Z,4.00
2018-07-10T01:21:43.060Z,4.50
2018-07-10T01:24:11.866Z,4.22
2018-07-10T01:26:42.032Z,4.70
2018-07-10T01:29:20.312Z,4.25
2018-07-10T01:31:50.237Z,4.00
2018-07-10T01:34:19.089Z,4.60
2018-07-10T01:36:47.843Z,4.28
2018-07-10T01:39:16.652Z,4.28
2018-07-10T01:41:45.320Z,4.33
2018-07-10T01:44:15.997Z,4.30
2018-07-10T01:46:44.701Z,3.62
2018-07-10T01:49:13.404Z,3.95
2018-07-10T01:51:42.150Z,4.13
2018-07-10T01:54:10.889Z,4.05
2018-07-10T01:56:39.586Z,3.67
2018-07-10T01:59:08.371Z,4.62
2018-07-10T02:01:37.159Z,4.05
2018-07-10T02:04:06.764Z,3.92
2018-07-10T02:06:35.527Z,4.40
2018-07-10T02:09:04.999Z,4.30
2018-07-10T02:11:33.782Z,4.37
2018-07-10T02:14:02.630Z,4.78
2018-07-10T02:16:31.323Z,3.98
2018-07-10T02:19:00.195Z,4.30
2018-07-10T02:21:28.926Z,3.90
2018-07-10T02:23:57.701Z,4.33
2018-07-10T02:26:27.633Z,4.00
2018-07-10T02:28:57.812Z,3.70
2018-07-10T02:31:26.603Z,3.52
2018-07-10T02:33:55.419Z,3.87
2018-07-10T02:36:24.776Z,3.95
2018-07-10T02:38:56.235Z,3.67
2018-07-10T02:41:25.067Z,3.42
2018-07-10T02:43:56.495Z,3.30
2018-07-10T02:46:25.990Z,3.45
2018-07-10T02:49:00.049Z,3.10
2018-07-10T02:51:29.848Z,3.80
2018-07-10T02:53:58.173Z,3.70
2018-07-10T02:56:26.949Z,3.52
2018-07-10T02:58:56.334Z,3.50
2018-07-10T03:01:25.115Z,3.58
2018-07-10T03:03:53.889Z,3.60
2018-07-10T03:06:22.789Z,3.83
2018-07-10T03:08:51.580Z,3.40
2018-07-10T03:11:22.422Z,3.58
2018-07-10T03:13:51.780Z,3.90
2018-07-10T03:16:20.557Z,4.10
2018-07-10T03:18:49.357Z,3.95
2018-07-10T03:21:18.243Z,4.12
2018-07-10T03:23:47.099Z,4.10
2018-07-10T03:26:16.922Z,4.30
2018-07-10T03:28:45.644Z,4.12
2018-07-10T03:31:14.430Z,3.77
2018-07-10T03:33:43.794Z,3.98
2018-07-10T03:36:13.505Z,4.25
2018-07-10T03:38:43.362Z,3.98
2018-07-10T03:41:13.101Z,3.58
2018-07-10T03:43:43.681Z,3.90
2018-07-10T03:46:17.320Z,3.70
2018-07-10T03:48:46.135Z,3.50
2018-07-10T03:51:15.590Z,3.77
2018-07-10T03:53:44.490Z,3.80
2018-07-10T03:56:13.952Z,3.87
2018-07-10T03:58:42.812Z,3.65
2018-07-10T04:01:11.583Z,3.47
2018-07-10T04:03:40.449Z,3.72
2018-07-10T04:06:09.253Z,3.90
2018-07-10T04:08:38.533Z,4.30
2018-07-10T04:11:09.528Z,4.00
2018-07-10T04:13:39.666Z,3.70
2018-07-10T04:16:09.532Z,3.52
2018-07-10T04:18:38.300Z,3.93
2018-07-10T04:21:17.892Z,3.98
2018-07-10T04:23:48.678Z,4.08
2018-07-10T04:26:21.211Z,3.72
2018-07-10T04:29:11.723Z,3.70
2018-07-10T04:31:58.819Z,4.30
2018-07-10T04:34:31.660Z,3.60
2018-07-10T04:37:09.539Z,3.50
2018-07-10T04:39:39.868Z,3.37
2018-07-10T04:42:20.875Z,3.02
2018-07-10T04:44:56.343Z,3.08
2018-07-10T04:47:29.945Z,3.25
2018-07-10T04:50:10.078Z,2.72
2018-07-10T04:52:41.442Z,3.30
2018-07-10T04:55:11.478Z,3.00
2018-07-10T04:57:49.514Z,3.33
2018-07-10T05:00:19.510Z,2.90
2018-07-10T05:02:48.778Z,3.15
2018-07-10T05:05:19.957Z,3.22
2018-07-10T05:07:49.799Z,3.50
2018-07-10T05:10:20.082Z,3.25
2018-07-10T05:12:48.904Z,3.42
2018-07-10T05:15:17.758Z,3.35
2018-07-10T05:17:50.936Z,3.62
2018-07-10T05:20:22.125Z,3.62
2018-07-10T05:22:50.999Z,3.80
2018-07-10T05:25:19.933Z,3.75
2018-07-10T05:27:49.387Z,3.50
2018-07-10T05:30:18.746Z,3.50
2018-07-10T05:32:47.902Z,3.90
2018-07-10T05:35:17.186Z,3.80
2018-07-10T05:37:45.991Z,4.03
2018-07-10T05:40:24.693Z,4.00
2018-07-10T05:42:53.609Z,4.20
2018-07-10T05:45:24.136Z,4.00
2018-07-10T05:48:01.562Z,3.70
2018-07-10T05:50:34.814Z,3.70
2018-07-10T05:53:06.069Z,3.33
2018-07-10T05:55:34.855Z,3.77
2018-07-10T05:58:17.640Z,3.72
2018-07-10T06:00:46.359Z,3.70
2018-07-10T06:03:15.104Z,3.50
2018-07-10T06:05:43.961Z,4.20
2018-07-10T06:08:14.884Z,4.25
2018-07-10T06:10:45.185Z,4.40
2018-07-10T06:13:23.376Z,3.77
2018-07-10T06:15:55.842Z,3.58
2018-07-10T06:18:25.657Z,3.42
2018-07-10T06:20:58.749Z,3.67
2018-07-10T06:23:34.083Z,3.37
2018-07-10T06:26:02.891Z,3.10
2018-07-10T06:28:35.573Z,3.27
2018-07-10T06:31:08.388Z,3.77
2018-07-10T06:33:40.267Z,3.07
2018-07-10T06:36:18.994Z,3.22
2018-07-10T06:38:48.826Z,3.08
2018-07-10T06:41:18.766Z,2.90
2018-07-10T06:43:52.939Z,3.17
2018-07-10T06:46:30.052Z,3.20
2018-07-10T06:49:05.650Z,3.92
2018-07-10T06:51:35.506Z,3.87
2018-07-10T06:54:04.575Z,3.60
2018-07-10T06:56:33.376Z,4.00
2018-07-10T06:59:03.230Z,4.30
2018-07-10T07:01:33.009Z,3.98
2018-07-10T07:04:06.256Z,3.87
2018-07-10T07:06:35.343Z,3.70
2018-07-10T07:09:04.849Z,3.33
2018-07-10T07:11:33.552Z,3.30
2018-07-10T07:14:02.466Z,2.90
2018-07-10T07:16:33.430Z,3.67
2018-07-10T07:19:03.260Z,3.37
2018-07-10T07:21:35.775Z,3.42
2018-07-10T07:24:04.549Z,3.30
2018-07-10T07:26:34.183Z,3.00
2018-07-10T07:29:02.911Z,2.65
2018-07-10T07:31:31.737Z,2.87
2018-07-10T07:34:00.620Z,2.87
2018-07-10T07:36:29.478Z,2.92
2018-07-10T07:38:59.276Z,2.67
2018-07-10T07:41:28.132Z,2.80
2018-07-10T07:43:57.252Z,2.55
2018-07-10T07:46:26.568Z,2.50
2018-07-10T07:48:56.542Z,2.77
2018-07-10T07:51:25.269Z,2.50
2018-07-10T07:53:53.855Z,2.80
2018-07-10T07:56:23.661Z,2.75
2018-07-10T07:58:52.368Z,2.50
2018-07-10T08:01:21.724Z,2.80
2018-07-10T08:03:51.505Z,2.80
2018-07-10T08:06:20.263Z,2.50
2018-07-10T08:08:49.225Z,2.50
2018-07-10T08:11:19.252Z,2.70
2018-07-10T08:13:48.225Z,2.70
2018-07-10T08:16:17.478Z,3.08
2018-07-10T08:18:47.273Z,3.22
2018-07-10T08:21:16.115Z,3.00
2018-07-10T08:23:46.082Z,3.15
2018-07-10T08:26:14.837Z,3.30
2018-07-10T08:28:43.706Z,3.22
2018-07-10T08:31:12.657Z,2.98
2018-07-10T08:33:42.589Z,2.90
2018-07-10T08:36:11.365Z,2.87
2018-07-10T08:38:44.313Z,3.20
2018-07-10T08:41:25.478Z,3.08
2018-07-10T08:43:55.518Z,3.08
2018-07-10T08:46:28.954Z,3.15
2018-07-10T08:49:01.628Z,3.70
2018-07-10T08:51:31.341Z,3.20
2018-07-10T08:54:00.212Z,3.67
2018-07-10T08:56:30.124Z,3.50
2018-07-10T08:59:03.269Z,2.90
2018-07-10T09:01:32.581Z,3.40
2018-07-10T09:04:02.384Z,3.25
2018-07-10T09:06:31.823Z,3.60
2018-07-10T09:09:01.066Z,3.77
2018-07-10T09:11:29.851Z,3.52
2018-07-10T09:13:58.840Z,3.92
2018-07-10T09:16:27.173Z,3.90
2018-07-10T09:18:57.084Z,3.83
2018-07-10T09:21:28.248Z,3.70
2018-07-10T09:23:57.240Z,3.50
2018-07-10T09:26:26.017Z,3.25
2018-07-10T09:28:55.825Z,3.17
2018-07-10T09:31:24.664Z,3.37
2018-07-10T09:33:53.461Z,3.52
2018-07-10T09:36:22.216Z,3.85
2018-07-10T09:38:51.011Z,3.50
2018-07-10T09:41:19.840Z,4.20
2018-07-10T09:43:49.687Z,3.30
2018-07-10T09:46:18.512Z,3.25
2018-07-10T09:48:52.248Z,3.98
2018-07-10T09:51:21.111Z,4.03
2018-07-10T09:53:50.980Z,3.98
2018-07-10T09:56:19.853Z,3.30
2018-07-10T09:58:49.435Z,3.30
2018-07-10T10:01:22.412Z,3.60
2018-07-10T10:03:51.755Z,3.12
2018-07-10T10:06:20.511Z,3.47
2018-07-10T10:08:49.264Z,3.60
2018-07-10T10:11:17.939Z,4.03
2018-07-10T10:13:46.825Z,3.42
2018-07-10T10:16:15.666Z,3.90
2018-07-10T10:18:44.565Z,3.52
2018-07-10T10:21:13.351Z,4.05
2018-07-10T10:23:42.150Z,3.67
2018-07-10T10:26:14.066Z,3.50
2018-07-10T10:28:43.182Z,3.60
2018-07-10T10:31:12.062Z,3.20
2018-07-10T10:33:41.762Z,3.30
2018-07-10T10:36:10.595Z,3.13
2018-07-10T10:38:43.315Z,2.33
2018-07-10T10:41:13.383Z,3.12
2018-07-10T10:43:42.161Z,3.00
2018-07-10T10:46:11.043Z,3.80
2018-07-10T10:48:40.099Z,3.37
2018-07-10T10:51:09.902Z,3.00
2018-07-10T10:53:38.688Z,3.40
2018-07-10T10:56:08.491Z,3.22
2018-07-10T10:58:37.314Z,3.42
2018-07-10T11:01:07.206Z,3.40
2018-07-10T11:03:36.611Z,3.90
2018-07-10T11:06:06.335Z,3.87
2018-07-10T11:08:35.517Z,3.30
2018-07-10T11:11:05.494Z,3.83
2018-07-10T11:13:34.374Z,4.30
2018-07-10T11:16:03.141Z,3.20
2018-07-10T11:18:44.590Z,3.15
2018-07-10T11:22:22.251Z,3.70
2018-07-10T11:24:55.587Z,3.20
2018-07-10T11:28:27.211Z,3.30
2018-07-10T11:30:56.006Z,3.70
2018-07-10T11:33:24.772Z,3.40
2018-07-10T11:35:53.566Z,3.17
2018-07-10T11:38:22.362Z,2.90
2018-07-10T11:40:51.151Z,3.40
2018-07-10T11:43:19.963Z,3.58
2018-07-10T11:45:48.737Z,3.62
2018-07-10T11:48:19.042Z,3.55
2018-07-10T11:50:48.395Z,3.50
2018-07-10T11:53:17.298Z,3.47
2018-07-10T11:55:52.266Z,3.47
2018-07-10T11:58:21.979Z,2.67
2018-07-10T12:00:52.767Z,2.80
2018-07-10T12:03:22.024Z,3.02
2018-07-10T12:05:52.146Z,3.00
2018-07-10T12:08:20.854Z,2.83
2018-07-10T12:10:59.743Z,2.62
2018-07-10T12:13:29.485Z,2.87
2018-07-10T12:15:58.258Z,2.95
2018-07-10T12:18:27.003Z,2.77
2018-07-10T12:20:55.804Z,3.00
2018-07-10T12:23:24.547Z,2.80
2018-07-10T12:25:53.369Z,3.15
2018-07-10T12:28:22.218Z,2.47
2018-07-10T12:30:50.984Z,2.50
2018-07-10T12:33:21.681Z,2.98
2018-07-10T12:35:51.532Z,2.98
2018-07-10T12:38:20.507Z,2.65
2018-07-10T12:40:49.225Z,3.25
2018-07-10T12:43:19.117Z,3.37
2018-07-10T12:45:48.894Z,3.45
2018-07-10T12:48:18.629Z,2.87
2018-07-10T12:50:50.374Z,2.83
2018-07-10T12:53:20.037Z,3.20
2018-07-10T12:56:01.803Z,3.30
2018-07-10T12:58:32.098Z,3.10
2018-07-10T13:01:01.051Z,3.42
2018-07-10T13:03:31.813Z,3.08
2018-07-10T13:06:01.056Z,2.70
2018-07-10T13:08:29.865Z,2.90
2018-07-10T13:11:08.806Z,2.90
2018-07-10T13:13:38.192Z,2.72
2018-07-10T13:16:08.062Z,3.00
2018-07-10T13:18:37.805Z,2.62
2018-07-10T13:21:07.575Z,2.55
2018-07-10T13:23:38.391Z,3.30
2018-07-10T13:26:07.204Z,3.57
2018-07-10T13:28:35.990Z,3.27
2018-07-10T13:31:04.962Z,2.62
2018-07-10T13:33:33.794Z,3.35
2018-07-10T13:36:02.840Z,3.10
2018-07-10T13:38:32.291Z,3.25
2018-07-10T13:41:02.949Z,2.90
2018-07-10T13:43:31.702Z,3.05
2018-07-10T13:46:00.516Z,2.97
2018-07-10T13:48:30.331Z,3.27
2018-07-10T13:51:00.192Z,3.08
2018-07-10T13:53:28.965Z,3.15
2018-07-10T13:55:57.765Z,3.45
2018-07-10T13:58:30.661Z,3.30
2018-07-10T14:01:04.785Z,3.47
2018-07-10T14:03:35.468Z,3.75
2018-07-10T14:06:04.788Z,3.75
2018-07-10T14:08:33.825Z,4.00
2018-07-10T14:11:02.742Z,4.00
2018-07-10T14:13:31.618Z,3.90
2018-07-10T14:16:00.433Z,4.15
2018-07-10T14:20:01.263Z,3.97
2018-07-10T14:22:31.555Z,4.50
2018-07-10T14:25:00.350Z,4.58
2018-07-10T14:27:29.227Z,4.12
2018-07-10T14:29:58.752Z,4.17
2018-07-10T14:32:27.502Z,4.40
2018-07-10T14:34:56.415Z,4.20
2018-07-10T14:37:26.234Z,4.30
2018-07-10T14:39:57.462Z,4.50
2018-07-10T14:42:26.220Z,4.33
2018-07-10T14:44:57.083Z,4.08
2018-07-10T14:47:25.959Z,3.87
2018-07-10T14:49:54.889Z,4.57
2018-07-10T14:52:23.743Z,3.83
2018-07-10T14:54:52.759Z,4.35
2018-07-10T14:57:21.528Z,3.92
2018-07-10T14:59:50.243Z,3.30
2018-07-10T15:02:19.026Z,4.12
2018-07-10T15:04:47.847Z,3.97
2018-07-10T15:07:16.627Z,3.83
2018-07-10T15:09:45.595Z,3.45
2018-07-10T15:12:14.256Z,4.00
2018-07-10T15:14:44.159Z,4.47
2018-07-10T15:17:18.317Z,3.73
2018-07-10T15:19:47.122Z,3.85
2018-07-10T15:22:15.896Z,3.55
2018-07-10T15:24:44.695Z,4.08
2018-07-10T15:27:13.451Z,2.97
2018-07-10T15:29:42.237Z,3.25
2018-07-10T15:32:11.989Z,3.37
2018-07-10T15:34:40.703Z,3.35
2018-07-10T15:37:10.427Z,2.98
2018-07-10T15:39:39.261Z,2.95
2018-07-10T15:42:08.010Z,3.30
2018-07-10T15:44:36.728Z,3.50
2018-07-10T15:47:05.588Z,3.62
2018-07-10T15:49:34.330Z,3.47
2018-07-10T15:52:03.154Z,3.40
2018-07-10T15:54:32.903Z,3.62
2018-07-10T15:57:01.761Z,3.42
2018-07-10T15:59:30.427Z,3.65
2018-07-10T16:01:59.262Z,3.30
2018-07-10T16:04:28.014Z,2.80
2018-07-10T16:06:56.747Z,2.92
2018-07-10T16:09:25.509Z,3.20
2018-07-10T16:11:59.396Z,2.62
2018-07-10T16:14:28.589Z,2.50
2018-07-10T16:16:57.211Z,2.83
2018-07-10T16:19:35.845Z,2.70
2018-07-10T16:22:08.591Z,2.57
2018-07-10T16:24:44.086Z,2.90
2018-07-10T16:27:12.928Z,3.00
2018-07-10T16:29:41.792Z,2.90
2018-07-10T16:32:10.976Z,2.58
2018-07-10T16:34:40.911Z,2.90
2018-07-10T16:37:09.703Z,2.83
2018-07-10T16:39:38.581Z,2.98
2018-07-10T16:42:12.674Z,3.05
2018-07-10T16:44:43.457Z,3.02
2018-07-10T16:47:20.494Z,3.27
2018-07-10T16:49:49.370Z,3.55
2018-07-10T16:53:23.665Z,2.62
2018-07-10T16:55:52.453Z,3.50
2018-07-10T16:58:21.856Z,3.17
2018-07-10T17:00:50.691Z,3.90
2018-07-10T17:03:19.533Z,3.70
2018-07-10T17:05:48.405Z,3.12
2018-07-10T17:08:17.228Z,3.30
2018-07-10T17:10:46.023Z,3.52
2018-07-10T17:13:14.848Z,3.27
2018-07-10T17:15:43.601Z,3.40
2018-07-10T17:18:14.061Z,3.00
2018-07-10T17:20:43.198Z,3.37
2018-07-10T17:23:12.485Z,3.40
2018-07-10T17:25:41.302Z,3.30
2018-07-10T17:28:12.763Z,3.98
2018-07-10T17:30:42.224Z,4.08
2018-07-10T17:33:18.883Z,4.85
2018-07-10T17:35:47.737Z,4.90
2018-07-10T17:38:16.551Z,4.53
2018-07-10T17:40:45.435Z,4.53
2018-07-10T17:43:15.215Z,4.58
2018-07-10T17:45:44.023Z,4.50
2018-07-10T17:48:13.780Z,4.45
2018-07-10T17:50:42.634Z,4.17
2018-07-10T17:53:11.450Z,4.80
2018-07-10T17:55:41.255Z,5.20
2018-07-10T17:58:10.208Z,4.80
2018-07-10T18:00:38.987Z,4.70
2018-07-10T18:03:08.793Z,4.22
2018-07-10T18:05:37.563Z,4.50
2018-07-10T18:08:06.347Z,4.50
2018-07-10T18:10:35.155Z,4.92
2018-07-10T18:13:03.937Z,4.20
2018-07-10T18:15:32.710Z,4.33
2018-07-10T18:18:01.529Z,4.30
2018-07-10T18:20:30.357Z,4.17
2018-07-10T18:22:59.220Z,4.10
2018-07-10T18:25:27.946Z,4.37
2018-07-10T18:27:57.061Z,4.40
2018-07-10T18:30:25.858Z,4.42
2018-07-10T18:32:54.985Z,4.40
2018-07-10T18:35:23.712Z,4.20
2018-07-10T18:37:52.509Z,4.70
2018-07-10T18:40:21.395Z,4.62
2018-07-10T18:42:50.174Z,4.75
2018-07-10T18:45:18.977Z,4.40
2018-07-10T18:47:47.825Z,5.62
2018-07-10T18:50:17.568Z,4.62
2018-07-10T18:52:48.558Z,4.30
2018-07-10T18:55:17.271Z,4.83
2018-07-10T18:58:01.443Z,4.80
2018-07-10T19:00:43.794Z,4.97
2018-07-10T19:03:13.826Z,4.70
2018-07-10T19:05:52.139Z,4.95
2018-07-10T19:08:21.840Z,5.05
2018-07-10T19:10:50.612Z,5.03
2018-07-10T19:13:20.507Z,5.60
2018-07-10T19:15:50.038Z,5.92
2018-07-10T19:18:18.605Z,5.75
2018-07-10T19:20:56.518Z,6.15
2018-07-10T19:23:33.754Z,6.20
2018-07-10T19:26:02.945Z,6.55
2018-07-10T19:28:32.309Z,6.05
2018-07-10T19:31:09.404Z,6.10
2018-07-10T19:33:39.922Z,5.90
2018-07-10T19:36:08.862Z,5.90
2018-07-10T19:38:38.120Z,5.80
2018-07-10T19:41:06.991Z,6.10
2018-07-10T19:43:35.941Z,6.08
2018-07-10T19:46:05.120Z,6.10
2018-07-10T19:48:34.813Z,6.37
2018-07-10T19:51:03.722Z,5.23
2018-07-10T19:53:32.770Z,6.20
2018-07-10T19:56:03.330Z,5.90
2018-07-10T19:58:39.908Z,5.40
2018-07-10T20:02:11.616Z,5.92
2018-07-10T20:04:48.523Z,5.60
2018-07-10T20:07:19.954Z,5.15
2018-07-10T20:09:51.933Z,5.05
2018-07-10T20:12:26.652Z,5.22
2018-07-10T20:16:04.194Z,5.37
2018-07-10T20:18:44.310Z,5.85
2018-07-10T20:21:22.404Z,5.65
2018-07-10T20:24:23.225Z,6.20
2018-07-10T20:27:18.760Z,6.30
2018-07-10T20:30:03.912Z,6.27
2018-07-10T20:32:35.721Z,6.20
2018-07-10T20:35:13.707Z,6.30
2018-07-10T20:37:42.484Z,5.80
2018-07-10T20:40:11.269Z,5.78
2018-07-10T20:42:43.913Z,5.97
2018-07-10T20:45:12.813Z,5.87
2018-07-10T20:47:49.043Z,5.67
2018-07-10T20:50:25.891Z,6.20
2018-07-10T20:52:59.642Z,6.08
2018-07-10T20:56:01.322Z,6.75
2018-07-10T20:58:39.398Z,5.97
2018-07-10T21:01:09.205Z,5.92
2018-07-10T21:03:49.809Z,5.70
2018-07-10T21:06:35.579Z,6.00
2018-07-10T21:09:13.509Z,5.87
2018-07-10T21:12:19.019Z,5.83
2018-07-10T21:15:23.654Z,5.20
2018-07-10T21:18:06.083Z,5.58
2018-07-10T21:20:57.030Z,5.33
2018-07-10T21:23:35.809Z,5.62
2018-07-10T21:26:10.715Z,5.50
2018-07-10T21:28:48.132Z,5.03
2018-07-10T21:32:03.122Z,5.23
2018-07-10T21:34:52.138Z,5.50
2018-07-10T21:39:36.707Z,5.60
2018-07-10T21:42:27.597Z,5.08
2018-07-10T21:46:03.019Z,6.20
2018-07-10T21:48:51.739Z,4.95
2018-07-10T21:51:20.665Z,5.35
2018-07-10T21:53:49.450Z,5.55
2018-07-10T21:56:18.242Z,6.00
2018-07-10T21:58:48.903Z,5.62
2018-07-10T22:02:20.798Z,5.45
2018-07-10T22:04:52.866Z,5.62
2018-07-10T22:07:22.041Z,5.27
2018-07-10T22:09:51.015Z,5.47
2018-07-10T22:12:20.897Z,5.47
2018-07-10T22:14:49.714Z,5.70
2018-07-10T22:17:23.006Z,5.58
2018-07-10T22:19:53.864Z,6.00
2018-07-10T22:22:37.300Z,6.87
2018-07-10T22:25:07.170Z,6.70
2018-07-10T22:27:38.420Z,5.83
2018-07-10T22:30:12.421Z,6.95
2018-07-10T22:32:47.150Z,6.10
2018-07-10T22:35:18.967Z,6.62
2018-07-10T22:37:47.736Z,5.33
2018-07-10T22:40:18.511Z,7.13
2018-07-10T22:42:47.522Z,7.00
2018-07-10T22:45:17.990Z,7.05
2018-07-10T22:47:46.943Z,6.92
2018-07-10T22:50:22.410Z,6.47
2018-07-10T22:52:53.590Z,7.42
2018-07-10T22:55:27.133Z,6.37
2018-07-10T22:58:11.062Z,6.10
2018-07-10T23:00:40.502Z,7.00
2018-07-10T23:03:15.667Z,5.60
2018-07-10T23:05:45.324Z,6.05
2018-07-10T23:08:14.265Z,6.35
2018-07-10T23:10:43.053Z,6.70
2018-07-10T23:13:11.883Z,6.10
2018-07-10T23:15:41.319Z,6.70
2018-07-10T23:18:11.080Z,6.85
2018-07-10T23:20:39.900Z,6.40
2018-07-10T23:23:09.762Z,6.47
2018-07-10T23:25:38.662Z,7.25
2018-07-10T23:28:07.449Z,6.75
2018-07-10T23:30:40.064Z,6.60
2018-07-10T23:33:14.513Z,6.87
2018-07-10T23:35:45.625Z,6.37
2018-07-10T23:38:35.970Z,7.05
2018-07-10T23:41:12.962Z,6.20
2018-07-10T23:43:45.314Z,5.78
2018-07-10T23:46:20.750Z,5.77
2018-07-10T23:48:52.261Z,5.97
2018-07-10T23:51:21.083Z,6.28
2018-07-10T23:53:52.939Z,6.42
2018-07-10T23:56:23.071Z,5.45
2018-07-10T23:58:51.905Z,5.22
